sensor_id;sensor_type;location;lat;lon;timestamp;temperature;humidity
66586;SHT30;53444;45.822;16.092;2024-03-08T00:01:36;3.13;88.05
66586;SHT30;53444;45.822;16.092;2024-03-08T00:04:02;3.13;88.09
66586;SHT30;53444;45.822;16.092;2024-03-08T00:06:31;3.28;87.84
66586;SHT30;53444;45.822;16.092;2024-03-08T00:08:57;3.19;87.97
66586;SHT30;53444;45.822;16.092;2024-03-08T00:11:24;3.18;88.50
66586;SHT30;53444;45.822;16.092;2024-03-08T00:13:51;3.12;88.45
66586;SHT30;53444;45.822;16.092;2024-03-08T00:16:18;3.25;88.47
66586;SHT30;53444;45.822;16.092;2024-03-08T00:18:45;3.42;87.64
66586;SHT30;53444;45.822;16.092;2024-03-08T00:21:12;3.50;87.18
66586;SHT30;53444;45.822;16.092;2024-03-08T00:23:42;3.59;86.88
66586;SHT30;53444;45.822;16.092;2024-03-08T00:26:08;3.60;86.71
66586;SHT30;53444;45.822;16.092;2024-03-08T00:28:35;3.40;87.16
66586;SHT30;53444;45.822;16.092;2024-03-08T00:31:02;3.44;87.19
66586;SHT30;53444;45.822;16.092;2024-03-08T00:33:28;3.55;86.95
66586;SHT30;53444;45.822;16.092;2024-03-08T00:35:54;3.50;87.17
66586;SHT30;53444;45.822;16.092;2024-03-08T00:38:21;3.63;87.36
66586;SHT30;53444;45.822;16.092;2024-03-08T00:40:49;3.59;86.85
66586;SHT30;53444;45.822;16.092;2024-03-08T00:43:15;3.69;86.82
66586;SHT30;53444;45.822;16.092;2024-03-08T00:45:42;3.64;86.97
66586;SHT30;53444;45.822;16.092;2024-03-08T00:48:09;3.44;87.33
66586;SHT30;53444;45.822;16.092;2024-03-08T00:50:36;3.32;87.85
66586;SHT30;53444;45.822;16.092;2024-03-08T00:53:03;3.36;87.73
66586;SHT30;53444;45.822;16.092;2024-03-08T00:55:30;3.50;87.47
66586;SHT30;53444;45.822;16.092;2024-03-08T00:57:58;3.55;87.15
66586;SHT30;53444;45.822;16.092;2024-03-08T01:00:24;3.66;87.29
66586;SHT30;53444;45.822;16.092;2024-03-08T01:02:51;3.70;86.67
66586;SHT30;53444;45.822;16.092;2024-03-08T01:05:17;3.66;86.86
66586;SHT30;53444;45.822;16.092;2024-03-08T01:07:44;3.50;87.22
66586;SHT30;53444;45.822;16.092;2024-03-08T01:10:12;3.50;87.51
66586;SHT30;53444;45.822;16.092;2024-03-08T01:12:38;3.50;87.76
66586;SHT30;53444;45.822;16.092;2024-03-08T01:15:08;3.57;88.10
66586;SHT30;53444;45.822;16.092;2024-03-08T01:17:35;3.59;87.69
66586;SHT30;53444;45.822;16.092;2024-03-08T01:20:02;3.60;87.60
66586;SHT30;53444;45.822;16.092;2024-03-08T01:22:29;3.62;88.54
66586;SHT30;53444;45.822;16.092;2024-03-08T01:24:56;3.60;87.90
66586;SHT30;53444;45.822;16.092;2024-03-08T01:27:23;3.42;88.36
66586;SHT30;53444;45.822;16.092;2024-03-08T01:29:50;3.29;88.79
66586;SHT30;53444;45.822;16.092;2024-03-08T01:32:18;3.15;89.45
66586;SHT30;53444;45.822;16.092;2024-03-08T01:34:44;3.12;89.65
66586;SHT30;53444;45.822;16.092;2024-03-08T01:37:11;2.92;90.16
66586;SHT30;53444;45.822;16.092;2024-03-08T01:39:40;3.02;89.24
66586;SHT30;53444;45.822;16.092;2024-03-08T01:42:06;2.38;90.55
66586;SHT30;53444;45.822;16.092;2024-03-08T01:44:33;2.36;90.38
66586;SHT30;53444;45.822;16.092;2024-03-08T01:47:00;2.38;90.33
66586;SHT30;53444;45.822;16.092;2024-03-08T01:49:29;2.05;91.31
66586;SHT30;53444;45.822;16.092;2024-03-08T01:51:56;2.06;91.98
66586;SHT30;53444;45.822;16.092;2024-03-08T01:54:23;2.36;91.56
66586;SHT30;53444;45.822;16.092;2024-03-08T01:56:50;2.60;90.44
66586;SHT30;53444;45.822;16.092;2024-03-08T01:59:18;2.80;89.61
66586;SHT30;53444;45.822;16.092;2024-03-08T02:01:45;2.81;89.78
66586;SHT30;53444;45.822;16.092;2024-03-08T02:04:13;2.88;89.74
66586;SHT30;53444;45.822;16.092;2024-03-08T02:06:41;3.01;89.42
66586;SHT30;53444;45.822;16.092;2024-03-08T02:09:07;3.15;88.99
66586;SHT30;53444;45.822;16.092;2024-03-08T02:11:35;3.20;88.81
66586;SHT30;53444;45.822;16.092;2024-03-08T02:14:02;3.22;88.87
66586;SHT30;53444;45.822;16.092;2024-03-08T02:16:31;3.16;89.11
66586;SHT30;53444;45.822;16.092;2024-03-08T02:18:58;3.22;88.79
66586;SHT30;53444;45.822;16.092;2024-03-08T02:21:26;2.99;89.62
66586;SHT30;53444;45.822;16.092;2024-03-08T02:23:53;3.04;89.69
66586;SHT30;53444;45.822;16.092;2024-03-08T02:26:20;3.02;89.96
66586;SHT30;53444;45.822;16.092;2024-03-08T02:28:46;3.12;89.77
66586;SHT30;53444;45.822;16.092;2024-03-08T02:31:14;3.26;89.48
66586;SHT30;53444;45.822;16.092;2024-03-08T02:33:41;3.33;89.22
66586;SHT30;53444;45.822;16.092;2024-03-08T02:36:08;3.49;88.93
66586;SHT30;53444;45.822;16.092;2024-03-08T02:38:36;3.32;89.41
66586;SHT30;53444;45.822;16.092;2024-03-08T02:41:03;3.55;89.24
66586;SHT30;53444;45.822;16.092;2024-03-08T02:43:30;3.64;88.71
66586;SHT30;53444;45.822;16.092;2024-03-08T02:45:56;3.73;88.47
66586;SHT30;53444;45.822;16.092;2024-03-08T02:48:23;3.78;88.40
66586;SHT30;53444;45.822;16.092;2024-03-08T02:50:50;3.83;88.20
66586;SHT30;53444;45.822;16.092;2024-03-08T02:53:17;3.91;88.02
66586;SHT30;53444;45.822;16.092;2024-03-08T02:55:46;3.91;88.16
66586;SHT30;53444;45.822;16.092;2024-03-08T02:58:12;3.93;88.35
66586;SHT30;53444;45.822;16.092;2024-03-08T03:00:40;3.94;88.35
66586;SHT30;53444;45.822;16.092;2024-03-08T03:03:06;3.94;88.03
66586;SHT30;53444;45.822;16.092;2024-03-08T03:05:33;3.98;88.21
66586;SHT30;53444;45.822;16.092;2024-03-08T03:08:00;4.01;88.05
66586;SHT30;53444;45.822;16.092;2024-03-08T03:10:26;3.98;88.11
66586;SHT30;53444;45.822;16.092;2024-03-08T03:12:55;4.02;88.04
66586;SHT30;53444;45.822;16.092;2024-03-08T03:15:22;4.05;88.00
66586;SHT30;53444;45.822;16.092;2024-03-08T03:17:50;4.01;88.41
66586;SHT30;53444;45.822;16.092;2024-03-08T03:20:17;4.18;87.93
66586;SHT30;53444;45.822;16.092;2024-03-08T03:22:51;4.19;87.82
66586;SHT30;53444;45.822;16.092;2024-03-08T03:25:18;4.24;87.80
66586;SHT30;53444;45.822;16.092;2024-03-08T03:27:50;4.25;87.75
66586;SHT30;53444;45.822;16.092;2024-03-08T03:30:18;4.19;88.13
66586;SHT30;53444;45.822;16.092;2024-03-08T03:32:48;4.21;88.17
66586;SHT30;53444;45.822;16.092;2024-03-08T03:35:16;4.25;88.17
66586;SHT30;53444;45.822;16.092;2024-03-08T03:37:43;4.18;88.33
66586;SHT30;53444;45.822;16.092;2024-03-08T03:40:16;4.25;88.11
66586;SHT30;53444;45.822;16.092;2024-03-08T03:42:44;4.28;88.21
66586;SHT30;53444;45.822;16.092;2024-03-08T03:45:11;4.29;88.11
66586;SHT30;53444;45.822;16.092;2024-03-08T03:47:42;4.28;87.94
66586;SHT30;53444;45.822;16.092;2024-03-08T03:50:09;4.24;88.10
66586;SHT30;53444;45.822;16.092;2024-03-08T03:52:35;4.24;88.35
66586;SHT30;53444;45.822;16.092;2024-03-08T03:55:03;4.29;88.68
66586;SHT30;53444;45.822;16.092;2024-03-08T03:57:29;4.34;88.55
66586;SHT30;53444;45.822;16.092;2024-03-08T03:59:56;4.28;89.13
66586;SHT30;53444;45.822;16.092;2024-03-08T04:02:23;4.34;89.02
66586;SHT30;53444;45.822;16.092;2024-03-08T04:04:53;4.39;89.08
66586;SHT30;53444;45.822;16.092;2024-03-08T04:07:21;4.45;89.29
66586;SHT30;53444;45.822;16.092;2024-03-08T04:09:47;4.38;89.17
66586;SHT30;53444;45.822;16.092;2024-03-08T04:12:14;4.53;89.23
66586;SHT30;53444;45.822;16.092;2024-03-08T04:14:42;4.56;88.87
66586;SHT30;53444;45.822;16.092;2024-03-08T04:17:09;4.55;88.81
66586;SHT30;53444;45.822;16.092;2024-03-08T04:19:38;4.65;88.67
66586;SHT30;53444;45.822;16.092;2024-03-08T04:22:06;4.65;88.56
66586;SHT30;53444;45.822;16.092;2024-03-08T04:24:33;4.69;88.69
66586;SHT30;53444;45.822;16.092;2024-03-08T04:27:00;4.63;88.69
66586;SHT30;53444;45.822;16.092;2024-03-08T04:29:27;4.65;88.77
66586;SHT30;53444;45.822;16.092;2024-03-08T04:31:53;4.70;88.80
66586;SHT30;53444;45.822;16.092;2024-03-08T04:34:20;4.75;88.47
66586;SHT30;53444;45.822;16.092;2024-03-08T04:36:47;4.72;88.75
66586;SHT30;53444;45.822;16.092;2024-03-08T04:39:15;4.72;88.85
66586;SHT30;53444;45.822;16.092;2024-03-08T04:41:44;4.76;88.52
66586;SHT30;53444;45.822;16.092;2024-03-08T04:44:11;4.84;88.33
66586;SHT30;53444;45.822;16.092;2024-03-08T04:46:38;4.82;88.40
66586;SHT30;53444;45.822;16.092;2024-03-08T04:49:05;4.79;88.57
66586;SHT30;53444;45.822;16.092;2024-03-08T04:51:32;4.79;88.47
66586;SHT30;53444;45.822;16.092;2024-03-08T04:53:59;4.79;88.50
66586;SHT30;53444;45.822;16.092;2024-03-08T04:56:27;4.77;88.60
66586;SHT30;53444;45.822;16.092;2024-03-08T04:58:54;4.75;88.91
66586;SHT30;53444;45.822;16.092;2024-03-08T05:01:20;4.83;88.70
66586;SHT30;53444;45.822;16.092;2024-03-08T05:03:47;4.79;88.88
66586;SHT30;53444;45.822;16.092;2024-03-08T05:06:15;4.84;88.66
66586;SHT30;53444;45.822;16.092;2024-03-08T05:08:48;4.87;88.61
66586;SHT30;53444;45.822;16.092;2024-03-08T05:11:16;4.86;88.48
66586;SHT30;53444;45.822;16.092;2024-03-08T05:13:44;4.84;88.68
66586;SHT30;53444;45.822;16.092;2024-03-08T05:16:10;4.84;88.67
66586;SHT30;53444;45.822;16.092;2024-03-08T05:18:37;4.90;88.63
66586;SHT30;53444;45.822;16.092;2024-03-08T05:21:04;5.00;88.15
66586;SHT30;53444;45.822;16.092;2024-03-08T05:23:30;4.99;88.16
66586;SHT30;53444;45.822;16.092;2024-03-08T05:25:57;4.99;87.98
66586;SHT30;53444;45.822;16.092;2024-03-08T05:28:24;4.94;88.20
66586;SHT30;53444;45.822;16.092;2024-03-08T05:30:52;4.97;88.28
66586;SHT30;53444;45.822;16.092;2024-03-08T05:33:22;4.96;88.33
66586;SHT30;53444;45.822;16.092;2024-03-08T05:35:49;4.97;88.28
66586;SHT30;53444;45.822;16.092;2024-03-08T05:38:19;5.04;88.00
66586;SHT30;53444;45.822;16.092;2024-03-08T05:40:50;5.00;88.08
66586;SHT30;53444;45.822;16.092;2024-03-08T05:43:16;5.04;88.11
66586;SHT30;53444;45.822;16.092;2024-03-08T05:45:44;5.00;88.37
66586;SHT30;53444;45.822;16.092;2024-03-08T05:48:13;5.03;88.22
66586;SHT30;53444;45.822;16.092;2024-03-08T05:50:39;5.10;88.11
66586;SHT30;53444;45.822;16.092;2024-03-08T05:53:07;5.06;88.25
66586;SHT30;53444;45.822;16.092;2024-03-08T05:55:34;5.13;87.91
66586;SHT30;53444;45.822;16.092;2024-03-08T05:58:01;5.17;87.77
66586;SHT30;53444;45.822;16.092;2024-03-08T06:00:28;5.16;87.95
66586;SHT30;53444;45.822;16.092;2024-03-08T06:02:56;5.16;88.05
66586;SHT30;53444;45.822;16.092;2024-03-08T06:05:25;5.14;88.24
66586;SHT30;53444;45.822;16.092;2024-03-08T06:07:52;5.20;88.27
66586;SHT30;53444;45.822;16.092;2024-03-08T06:10:19;5.14;89.09
66586;SHT30;53444;45.822;16.092;2024-03-08T06:12:46;5.19;88.87
66586;SHT30;53444;45.822;16.092;2024-03-08T06:15:13;5.24;88.82
66586;SHT30;53444;45.822;16.092;2024-03-08T06:17:42;5.19;88.91
66586;SHT30;53444;45.822;16.092;2024-03-08T06:20:17;5.27;88.98
66586;SHT30;53444;45.822;16.092;2024-03-08T06:22:50;5.16;89.11
66586;SHT30;53444;45.822;16.092;2024-03-08T06:25:19;5.26;89.32
66586;SHT30;53444;45.822;16.092;2024-03-08T06:27:46;5.28;89.27
66586;SHT30;53444;45.822;16.092;2024-03-08T06:30:13;5.37;88.99
66586;SHT30;53444;45.822;16.092;2024-03-08T06:32:41;5.33;89.19
66586;SHT30;53444;45.822;16.092;2024-03-08T06:35:08;5.26;89.26
66586;SHT30;53444;45.822;16.092;2024-03-08T06:37:36;5.34;89.08
66586;SHT30;53444;45.822;16.092;2024-03-08T06:40:05;5.37;88.73
66586;SHT30;53444;45.822;16.092;2024-03-08T06:42:33;5.43;88.63
66586;SHT30;53444;45.822;16.092;2024-03-08T06:45:00;5.47;88.65
66586;SHT30;53444;45.822;16.092;2024-03-08T06:47:30;5.50;88.92
66586;SHT30;53444;45.822;16.092;2024-03-08T06:49:57;5.48;89.28
66586;SHT30;53444;45.822;16.092;2024-03-08T06:52:24;5.50;89.36
66586;SHT30;53444;45.822;16.092;2024-03-08T06:54:50;5.38;89.12
66586;SHT30;53444;45.822;16.092;2024-03-08T06:57:19;5.44;89.23
66586;SHT30;53444;45.822;16.092;2024-03-08T06:59:47;5.44;89.55
66586;SHT30;53444;45.822;16.092;2024-03-08T07:02:14;5.48;89.87
66586;SHT30;53444;45.822;16.092;2024-03-08T07:04:40;5.51;89.90
66586;SHT30;53444;45.822;16.092;2024-03-08T07:07:07;5.50;90.35
66586;SHT30;53444;45.822;16.092;2024-03-08T07:09:35;5.48;89.97
66586;SHT30;53444;45.822;16.092;2024-03-08T07:12:01;5.51;89.92
66586;SHT30;53444;45.822;16.092;2024-03-08T07:14:30;5.50;90.12
66586;SHT30;53444;45.822;16.092;2024-03-08T07:16:57;5.52;90.53
66586;SHT30;53444;45.822;16.092;2024-03-08T07:19:23;5.48;90.74
66586;SHT30;53444;45.822;16.092;2024-03-08T07:21:50;5.58;90.17
66586;SHT30;53444;45.822;16.092;2024-03-08T07:24:17;5.66;90.07
66586;SHT30;53444;45.822;16.092;2024-03-08T07:27:04;5.62;89.60
66586;SHT30;53444;45.822;16.092;2024-03-08T07:29:32;5.62;89.94
66586;SHT30;53444;45.822;16.092;2024-03-08T07:31:59;5.56;90.49
66586;SHT30;53444;45.822;16.092;2024-03-08T07:34:40;5.58;90.40
66586;SHT30;53444;45.822;16.092;2024-03-08T07:37:07;5.66;91.13
66586;SHT30;53444;45.822;16.092;2024-03-08T07:39:37;5.64;90.51
66586;SHT30;53444;45.822;16.092;2024-03-08T07:42:04;5.65;90.68
66586;SHT30;53444;45.822;16.092;2024-03-08T07:44:31;5.69;90.86
66586;SHT30;53444;45.822;16.092;2024-03-08T07:47:00;5.64;91.79
66586;SHT30;53444;45.822;16.092;2024-03-08T07:49:26;5.71;91.26
66586;SHT30;53444;45.822;16.092;2024-03-08T07:51:53;5.75;90.91
66586;SHT30;53444;45.822;16.092;2024-03-08T07:54:20;5.79;90.89
66586;SHT30;53444;45.822;16.092;2024-03-08T07:56:46;5.79;91.34
66586;SHT30;53444;45.822;16.092;2024-03-08T07:59:13;5.82;91.56
66586;SHT30;53444;45.822;16.092;2024-03-08T08:01:40;5.93;90.95
66586;SHT30;53444;45.822;16.092;2024-03-08T08:04:08;5.88;91.33
66586;SHT30;53444;45.822;16.092;2024-03-08T08:06:38;5.85;91.02
66586;SHT30;53444;45.822;16.092;2024-03-08T08:09:06;5.95;91.03
66586;SHT30;53444;45.822;16.092;2024-03-08T08:11:35;5.99;90.83
66586;SHT30;53444;45.822;16.092;2024-03-08T08:14:02;6.05;90.99
66586;SHT30;53444;45.822;16.092;2024-03-08T08:16:28;6.06;90.99
66586;SHT30;53444;45.822;16.092;2024-03-08T08:18:55;6.02;91.75
66586;SHT30;53444;45.822;16.092;2024-03-08T08:21:23;6.13;91.30
66586;SHT30;53444;45.822;16.092;2024-03-08T08:23:51;6.15;91.19
66586;SHT30;53444;45.822;16.092;2024-03-08T08:26:18;6.25;90.91
66586;SHT30;53444;45.822;16.092;2024-03-08T08:28:47;6.10;91.13
66586;SHT30;53444;45.822;16.092;2024-03-08T08:31:14;6.16;90.90
66586;SHT30;53444;45.822;16.092;2024-03-08T08:33:41;6.16;91.37
66586;SHT30;53444;45.822;16.092;2024-03-08T08:36:09;6.22;90.95
66586;SHT30;53444;45.822;16.092;2024-03-08T08:38:37;6.15;90.64
66586;SHT30;53444;45.822;16.092;2024-03-08T08:41:04;6.16;90.28
66586;SHT30;53444;45.822;16.092;2024-03-08T08:43:31;6.27;90.85
66586;SHT30;53444;45.822;16.092;2024-03-08T08:45:58;6.37;90.73
66586;SHT30;53444;45.822;16.092;2024-03-08T08:48:26;6.53;89.97
66586;SHT30;53444;45.822;16.092;2024-03-08T08:50:56;6.48;90.30
66586;SHT30;53444;45.822;16.092;2024-03-08T08:53:22;6.43;89.93
66586;SHT30;53444;45.822;16.092;2024-03-08T08:55:50;6.57;89.32
66586;SHT30;53444;45.822;16.092;2024-03-08T08:58:18;6.53;89.08
66586;SHT30;53444;45.822;16.092;2024-03-08T09:00:45;6.48;88.98
66586;SHT30;53444;45.822;16.092;2024-03-08T09:03:11;6.50;88.72
66586;SHT30;53444;45.822;16.092;2024-03-08T09:05:38;6.54;88.56
66586;SHT30;53444;45.822;16.092;2024-03-08T09:08:07;6.46;89.23
66586;SHT30;53444;45.822;16.092;2024-03-08T09:10:34;6.48;89.39
66586;SHT30;53444;45.822;16.092;2024-03-08T09:13:03;6.43;89.40
66586;SHT30;53444;45.822;16.092;2024-03-08T09:15:30;6.54;88.29
66586;SHT30;53444;45.822;16.092;2024-03-08T09:17:56;6.38;88.29
66586;SHT30;53444;45.822;16.092;2024-03-08T09:20:24;6.33;88.58
66586;SHT30;53444;45.822;16.092;2024-03-08T09:22:51;6.27;88.80
66586;SHT30;53444;45.822;16.092;2024-03-08T09:25:17;6.22;89.16
66586;SHT30;53444;45.822;16.092;2024-03-08T09:27:44;6.34;89.36
66586;SHT30;53444;45.822;16.092;2024-03-08T09:30:13;6.34;89.22
66586;SHT30;53444;45.822;16.092;2024-03-08T09:32:40;6.34;88.94
66586;SHT30;53444;45.822;16.092;2024-03-08T09:35:09;6.43;88.51
66586;SHT30;53444;45.822;16.092;2024-03-08T09:37:36;6.46;88.48
66586;SHT30;53444;45.822;16.092;2024-03-08T09:40:04;6.56;88.38
66586;SHT30;53444;45.822;16.092;2024-03-08T09:42:34;6.64;88.13
66586;SHT30;53444;45.822;16.092;2024-03-08T09:45:03;6.70;87.92
66586;SHT30;53444;45.822;16.092;2024-03-08T09:47:32;6.64;87.99
66586;SHT30;53444;45.822;16.092;2024-03-08T09:50:05;6.66;88.22
66586;SHT30;53444;45.822;16.092;2024-03-08T09:52:34;6.70;88.19
66586;SHT30;53444;45.822;16.092;2024-03-08T09:55:04;6.89;87.84
66586;SHT30;53444;45.822;16.092;2024-03-08T09:57:31;6.83;87.78
66586;SHT30;53444;45.822;16.092;2024-03-08T09:59:58;6.83;87.84
66586;SHT30;53444;45.822;16.092;2024-03-08T10:02:25;6.98;87.70
66586;SHT30;53444;45.822;16.092;2024-03-08T10:04:53;7.05;87.85
66586;SHT30;53444;45.822;16.092;2024-03-08T10:07:20;7.19;87.54
66586;SHT30;53444;45.822;16.092;2024-03-08T10:09:47;7.07;87.48
66586;SHT30;53444;45.822;16.092;2024-03-08T10:12:15;7.12;87.56
66586;SHT30;53444;45.822;16.092;2024-03-08T10:14:42;7.01;87.99
66586;SHT30;53444;45.822;16.092;2024-03-08T10:17:09;7.09;87.22
66586;SHT30;53444;45.822;16.092;2024-03-08T10:19:36;6.98;87.43
66586;SHT30;53444;45.822;16.092;2024-03-08T10:22:04;6.88;87.93
66586;SHT30;53444;45.822;16.092;2024-03-08T10:24:32;6.89;88.59
66586;SHT30;53444;45.822;16.092;2024-03-08T10:26:59;7.02;88.02
66586;SHT30;53444;45.822;16.092;2024-03-08T10:29:27;6.95;87.96
66586;SHT30;53444;45.822;16.092;2024-03-08T10:31:54;6.94;87.77
66586;SHT30;53444;45.822;16.092;2024-03-08T10:34:21;6.97;87.57
66586;SHT30;53444;45.822;16.092;2024-03-08T10:36:50;7.08;87.65
66586;SHT30;53444;45.822;16.092;2024-03-08T10:39:21;7.01;87.57
66586;SHT30;53444;45.822;16.092;2024-03-08T10:41:53;7.04;87.21
66586;SHT30;53444;45.822;16.092;2024-03-08T10:47:18;6.98;87.30
66586;SHT30;53444;45.822;16.092;2024-03-08T10:49:51;6.98;87.42
66586;SHT30;53444;45.822;16.092;2024-03-08T10:52:20;6.91;87.79
66586;SHT30;53444;45.822;16.092;2024-03-08T10:54:51;6.95;87.73
66586;SHT30;53444;45.822;16.092;2024-03-08T10:57:19;6.91;87.88
66586;SHT30;53444;45.822;16.092;2024-03-08T10:59:47;6.91;87.72
66586;SHT30;53444;45.822;16.092;2024-03-08T11:02:16;6.99;88.45
66586;SHT30;53444;45.822;16.092;2024-03-08T11:04:46;7.22;87.60
66586;SHT30;53444;45.822;16.092;2024-03-08T11:07:12;7.12;87.12
66586;SHT30;53444;45.822;16.092;2024-03-08T11:09:42;7.23;86.85
66586;SHT30;53444;45.822;16.092;2024-03-08T11:12:23;7.26;86.91
66586;SHT30;53444;45.822;16.092;2024-03-08T11:14:56;7.32;87.73
66586;SHT30;53444;45.822;16.092;2024-03-08T11:17:40;7.45;87.34
66586;SHT30;53444;45.822;16.092;2024-03-08T11:20:09;7.53;87.04
66586;SHT30;53444;45.822;16.092;2024-03-08T11:22:41;7.50;86.98
66586;SHT30;53444;45.822;16.092;2024-03-08T11:25:30;7.33;87.25
66586;SHT30;53444;45.822;16.092;2024-03-08T11:28:17;7.22;87.56
66586;SHT30;53444;45.822;16.092;2024-03-08T11:30:45;7.29;87.35
66586;SHT30;53444;45.822;16.092;2024-03-08T11:33:13;7.36;87.56
66586;SHT30;53444;45.822;16.092;2024-03-08T11:35:42;7.46;87.66
66586;SHT30;53444;45.822;16.092;2024-03-08T11:38:11;7.49;86.79
66586;SHT30;53444;45.822;16.092;2024-03-08T11:40:39;7.42;86.87
66586;SHT30;53444;45.822;16.092;2024-03-08T11:43:08;7.46;86.35
66586;SHT30;53444;45.822;16.092;2024-03-08T11:45:36;7.55;86.23
66586;SHT30;53444;45.822;16.092;2024-03-08T11:48:04;7.52;86.20
66586;SHT30;53444;45.822;16.092;2024-03-08T11:50:31;7.50;86.12
66586;SHT30;53444;45.822;16.092;2024-03-08T11:53:02;7.65;85.93
66586;SHT30;53444;45.822;16.092;2024-03-08T11:55:30;7.76;86.04
66586;SHT30;53444;45.822;16.092;2024-03-08T11:58:02;7.70;85.63
66586;SHT30;53444;45.822;16.092;2024-03-08T12:00:30;7.69;86.09
66586;SHT30;53444;45.822;16.092;2024-03-08T12:03:04;7.67;86.01
66586;SHT30;53444;45.822;16.092;2024-03-08T12:05:31;7.67;86.35
66586;SHT30;53444;45.822;16.092;2024-03-08T12:07:58;7.74;85.98
66586;SHT30;53444;45.822;16.092;2024-03-08T12:10:25;7.74;86.24
66586;SHT30;53444;45.822;16.092;2024-03-08T12:12:54;7.69;86.19
66586;SHT30;53444;45.822;16.092;2024-03-08T12:15:22;7.87;85.66
66586;SHT30;53444;45.822;16.092;2024-03-08T12:17:52;7.95;85.30
66586;SHT30;53444;45.822;16.092;2024-03-08T12:20:20;8.14;85.25
66586;SHT30;53444;45.822;16.092;2024-03-08T12:22:48;8.10;84.82
66586;SHT30;53444;45.822;16.092;2024-03-08T12:25:17;8.28;84.35
66586;SHT30;53444;45.822;16.092;2024-03-08T12:27:44;8.34;84.40
66586;SHT30;53444;45.822;16.092;2024-03-08T12:30:19;8.22;85.02
66586;SHT30;53444;45.822;16.092;2024-03-08T12:32:52;8.22;84.53
66586;SHT30;53444;45.822;16.092;2024-03-08T12:35:20;8.15;84.33
66586;SHT30;53444;45.822;16.092;2024-03-08T12:37:49;8.22;84.97
66586;SHT30;53444;45.822;16.092;2024-03-08T12:40:16;8.18;84.85
66586;SHT30;53444;45.822;16.092;2024-03-08T12:42:43;8.20;84.68
66586;SHT30;53444;45.822;16.092;2024-03-08T12:45:13;8.20;84.81
66586;SHT30;53444;45.822;16.092;2024-03-08T12:47:39;8.25;84.97
66586;SHT30;53444;45.822;16.092;2024-03-08T12:50:09;8.20;84.99
66586;SHT30;53444;45.822;16.092;2024-03-08T12:52:36;8.11;85.42
66586;SHT30;53444;45.822;16.092;2024-03-08T12:55:03;8.02;85.16
66586;SHT30;53444;45.822;16.092;2024-03-08T12:57:33;8.04;84.97
66586;SHT30;53444;45.822;16.092;2024-03-08T13:00:00;8.02;85.13
66586;SHT30;53444;45.822;16.092;2024-03-08T13:02:28;8.00;84.92
66586;SHT30;53444;45.822;16.092;2024-03-08T13:04:56;8.04;84.95
66586;SHT30;53444;45.822;16.092;2024-03-08T13:07:25;8.00;85.33
66586;SHT30;53444;45.822;16.092;2024-03-08T13:09:52;7.91;86.26
66586;SHT30;53444;45.822;16.092;2024-03-08T13:12:20;7.80;85.95
66586;SHT30;53444;45.822;16.092;2024-03-08T13:14:46;7.69;86.40
66586;SHT30;53444;45.822;16.092;2024-03-08T13:17:13;7.43;86.79
66586;SHT30;53444;45.822;16.092;2024-03-08T13:19:40;7.30;87.95
66586;SHT30;53444;45.822;16.092;2024-03-08T13:22:07;7.52;88.06
66586;SHT30;53444;45.822;16.092;2024-03-08T13:24:38;7.66;87.36
66586;SHT30;53444;45.822;16.092;2024-03-08T13:27:06;7.65;87.29
66586;SHT30;53444;45.822;16.092;2024-03-08T13:29:45;7.46;87.40
66586;SHT30;53444;45.822;16.092;2024-03-08T13:32:13;7.59;87.41
66586;SHT30;53444;45.822;16.092;2024-03-08T13:34:41;7.76;86.84
66586;SHT30;53444;45.822;16.092;2024-03-08T13:37:07;7.73;86.73
66586;SHT30;53444;45.822;16.092;2024-03-08T13:39:35;7.76;86.63
66586;SHT30;53444;45.822;16.092;2024-03-08T13:42:07;7.80;86.95
66586;SHT30;53444;45.822;16.092;2024-03-08T13:44:35;7.90;86.28
66586;SHT30;53444;45.822;16.092;2024-03-08T13:47:02;8.00;86.13
66586;SHT30;53444;45.822;16.092;2024-03-08T13:49:30;7.93;85.90
66586;SHT30;53444;45.822;16.092;2024-03-08T13:51:57;7.94;86.53
66586;SHT30;53444;45.822;16.092;2024-03-08T13:54:24;7.94;86.13
66586;SHT30;53444;45.822;16.092;2024-03-08T13:56:52;7.86;86.40
66586;SHT30;53444;45.822;16.092;2024-03-08T13:59:21;7.81;86.36
66586;SHT30;53444;45.822;16.092;2024-03-08T14:01:48;7.76;86.48
66586;SHT30;53444;45.822;16.092;2024-03-08T14:04:15;7.73;86.86
66586;SHT30;53444;45.822;16.092;2024-03-08T14:06:43;7.79;86.49
66586;SHT30;53444;45.822;16.092;2024-03-08T14:09:10;7.70;87.00
66586;SHT30;53444;45.822;16.092;2024-03-08T14:11:42;7.73;86.48
66586;SHT30;53444;45.822;16.092;2024-03-08T14:14:09;7.70;87.08
66586;SHT30;53444;45.822;16.092;2024-03-08T14:16:39;7.71;87.15
66586;SHT30;53444;45.822;16.092;2024-03-08T14:19:05;7.56;87.43
66586;SHT30;53444;45.822;16.092;2024-03-08T14:21:32;7.30;88.22
66586;SHT30;53444;45.822;16.092;2024-03-08T14:23:59;7.30;88.25
66586;SHT30;53444;45.822;16.092;2024-03-08T14:26:26;7.30;88.62
66586;SHT30;53444;45.822;16.092;2024-03-08T14:28:53;7.40;88.32
66586;SHT30;53444;45.822;16.092;2024-03-08T14:31:19;7.22;88.73
66586;SHT30;53444;45.822;16.092;2024-03-08T14:33:52;7.19;89.66
66586;SHT30;53444;45.822;16.092;2024-03-08T14:36:19;7.07;90.04
66586;SHT30;53444;45.822;16.092;2024-03-08T14:38:46;7.16;89.63
66586;SHT30;53444;45.822;16.092;2024-03-08T14:41:13;7.19;90.11
66586;SHT30;53444;45.822;16.092;2024-03-08T14:43:42;7.01;90.20
66586;SHT30;53444;45.822;16.092;2024-03-08T14:46:10;6.97;90.17
66586;SHT30;53444;45.822;16.092;2024-03-08T14:48:39;7.01;89.89
66586;SHT30;53444;45.822;16.092;2024-03-08T14:51:08;7.07;89.88
66586;SHT30;53444;45.822;16.092;2024-03-08T14:53:36;7.23;89.27
66586;SHT30;53444;45.822;16.092;2024-03-08T14:56:06;7.40;89.12
66586;SHT30;53444;45.822;16.092;2024-03-08T14:58:33;7.53;88.44
66586;SHT30;53444;45.822;16.092;2024-03-08T15:01:00;7.74;87.76
66586;SHT30;53444;45.822;16.092;2024-03-08T15:03:26;7.76;87.59
66586;SHT30;53444;45.822;16.092;2024-03-08T15:05:54;7.70;87.57
66586;SHT30;53444;45.822;16.092;2024-03-08T15:08:22;7.62;87.25
66586;SHT30;53444;45.822;16.092;2024-03-08T15:10:50;7.71;87.30
66586;SHT30;53444;45.822;16.092;2024-03-08T15:13:19;7.94;86.79
66586;SHT30;53444;45.822;16.092;2024-03-08T15:15:48;8.00;86.33
66586;SHT30;53444;45.822;16.092;2024-03-08T15:18:21;8.08;86.88
66586;SHT30;53444;45.822;16.092;2024-03-08T15:20:51;8.22;85.96
66586;SHT30;53444;45.822;16.092;2024-03-08T15:23:17;8.15;85.14
66586;SHT30;53444;45.822;16.092;2024-03-08T15:25:47;8.14;85.46
66586;SHT30;53444;45.822;16.092;2024-03-08T15:28:14;8.15;85.88
66586;SHT30;53444;45.822;16.092;2024-03-08T15:30:43;8.08;85.51
66586;SHT30;53444;45.822;16.092;2024-03-08T15:33:12;8.07;85.24
66586;SHT30;53444;45.822;16.092;2024-03-08T15:35:41;8.08;85.12
66586;SHT30;53444;45.822;16.092;2024-03-08T15:38:11;8.04;85.68